Time;durP1;ratioP1;P1;durP2;ratioP2;P2;SDS_P1;SDS_P2;PMS_P1;PMS_P2;Temp;Humidity;BMP_temperature;BMP_pressure;BME280_temperature;BME280_humidity;BME280_pressure;Samples;Min_cycle;Max_cycle;Signal;HPM_P1;HPM_P2
2020/12/29 00:01:31;;;;;;;11.88;10.88;;;2.00;99.90;;;;;;5045005;28;20049;-72
2020/12/29 00:03:57;;;;;;;13.35;12.20;;;1.90;99.90;;;;;;5028780;28;20049;-71
2020/12/29 00:06:23;;;;;;;14.50;13.10;;;1.90;99.90;;;;;;5037408;28;20081;-71
2020/12/29 00:08:50;;;;;;;14.30;13.00;;;1.80;99.90;;;;;;5044808;28;20087;-71
2020/12/29 00:11:16;;;;;;;14.68;13.25;;;1.70;99.90;;;;;;5046842;28;20056;-70
2020/12/29 00:13:43;;;;;;;15.55;13.93;;;1.70;99.90;;;;;;5028876;28;20049;-71
2020/12/29 00:16:09;;;;;;;15.70;14.10;;;1.70;99.90;;;;;;5044686;28;20465;-70
2020/12/29 00:18:36;;;;;;;14.88;13.45;;;1.60;99.90;;;;;;5045472;28;20090;-71
2020/12/29 00:21:02;;;;;;;13.95;12.55;;;1.50;99.90;;;;;;5045413;28;20077;-71
2020/12/29 00:23:28;;;;;;;14.73;13.20;;;1.40;99.90;;;;;;5045969;28;20124;-71
2020/12/29 00:25:55;;;;;;;13.85;12.65;;;1.50;99.90;;;;;;5046793;28;20039;-71
2020/12/29 00:28:22;;;;;;;14.25;12.85;;;1.30;99.90;;;;;;5028079;28;20355;-71
2020/12/29 00:30:48;;;;;;;14.90;13.38;;;1.30;99.90;;;;;;5044979;28;20040;-70
2020/12/29 00:33:14;;;;;;;14.60;13.20;;;1.20;99.90;;;;;;5046190;28;20045;-70
2020/12/29 00:35:41;;;;;;;14.75;13.18;;;1.20;99.90;;;;;;5026602;28;20071;-71
2020/12/29 00:38:07;;;;;;;15.27;13.65;;;1.30;99.90;;;;;;5038547;28;20592;-71
2020/12/29 00:40:34;;;;;;;16.02;14.32;;;1.30;99.90;;;;;;5045235;28;20029;-71
2020/12/29 00:43:00;;;;;;;16.85;13.98;;;1.20;99.90;;;;;;5028207;28;20076;-71
2020/12/29 00:45:26;;;;;;;16.02;13.90;;;1.10;99.90;;;;;;5044591;28;20037;-71
2020/12/29 00:47:57;;;;;;;18.85;14.35;;;1.20;99.90;;;;;;5044753;28;20512;-72
2020/12/29 00:50:23;;;;;;;16.30;12.82;;;1.10;99.90;;;;;;5007071;28;20056;-72
2020/12/29 00:52:51;;;;;;;15.73;13.77;;;1.00;99.90;;;;;;5025402;28;20136;-71
2020/12/29 00:55:25;;;;;;;14.63;12.43;;;0.80;99.90;;;;;;5018024;28;20122;-71
2020/12/29 00:57:52;;;;;;;16.63;13.02;;;0.80;99.90;;;;;;5044628;28;20144;-71
2020/12/29 01:00:18;;;;;;;14.80;11.77;;;0.70;99.90;;;;;;5027916;28;20138;-71
2020/12/29 01:03:01;;;;;;;13.38;11.50;;;0.70;99.90;;;;;;5045260;28;20060;-72
2020/12/29 01:05:28;;;;;;;13.10;11.65;;;0.60;99.90;;;;;;5027627;28;20136;-71
2020/12/29 01:07:58;;;;;;;14.40;11.00;;;0.80;99.90;;;;;;5036976;28;20060;-71
2020/12/29 01:10:26;;;;;;;13.10;11.43;;;0.80;99.90;;;;;;5042497;28;20468;-71
2020/12/29 01:13:13;;;;;;;16.00;12.35;;;0.80;99.90;;;;;;5046062;28;20036;-71
2020/12/29 01:15:41;;;;;;;15.63;12.60;;;0.80;99.90;;;;;;5044437;28;20048;-71
2020/12/29 01:18:09;;;;;;;16.92;11.23;;;0.80;99.90;;;;;;5045536;28;20613;-71
2020/12/29 01:20:35;;;;;;;15.88;11.88;;;0.70;99.90;;;;;;5044979;28;20395;-72
2020/12/29 01:23:02;;;;;;;17.60;12.75;;;0.50;99.90;;;;;;5028101;28;20059;-71
2020/12/29 01:25:29;;;;;;;15.88;12.65;;;0.40;99.90;;;;;;5044261;28;20489;-71
2020/12/29 01:27:55;;;;;;;18.70;14.02;;;0.30;99.90;;;;;;5046106;28;20067;-71
2020/12/29 01:30:21;;;;;;;18.75;13.70;;;0.30;99.90;;;;;;5027812;28;20083;-71
2020/12/29 01:32:47;;;;;;;18.23;13.63;;;0.40;99.90;;;;;;5027916;28;20052;-71
2020/12/29 01:35:14;;;;;;;20.55;14.10;;;0.40;99.90;;;;;;5044438;28;20044;-71
2020/12/29 01:37:42;;;;;;;16.98;12.82;;;0.30;99.90;;;;;;5035506;28;20425;-71
2020/12/29 01:40:09;;;;;;;22.00;14.82;;;0.30;99.90;;;;;;5025722;28;20057;-71
2020/12/29 01:42:37;;;;;;;18.63;13.90;;;0.30;99.90;;;;;;5028959;28;20301;-71
2020/12/29 01:45:12;;;;;;;20.40;13.82;;;0.50;99.90;;;;;;5026916;28;20573;-71
2020/12/29 01:47:40;;;;;;;23.65;14.90;;;0.40;99.90;;;;;;5043703;28;20048;-71
2020/12/29 01:50:15;;;;;;;19.23;14.18;;;0.40;99.90;;;;;;5043210;28;20045;-71
2020/12/29 01:52:41;;;;;;;18.98;13.70;;;0.30;99.90;;;;;;5046098;28;20053;-71
2020/12/29 01:55:10;;;;;;;23.25;14.10;;;0.20;99.90;;;;;;5042508;28;20049;-71
2020/12/29 01:57:37;;;;;;;19.58;14.23;;;0.30;99.90;;;;;;5026304;28;20057;-71
2020/12/29 02:00:08;;;;;;;22.95;15.65;;;0.20;99.90;;;;;;5026321;28;20132;-71
2020/12/29 02:02:40;;;;;;;21.65;14.95;;;0.20;99.90;;;;;;5044392;28;20076;-70
2020/12/29 02:05:07;;;;;;;25.80;15.95;;;0.30;99.90;;;;;;5027057;28;20056;-71
2020/12/29 02:07:34;;;;;;;22.45;15.32;;;0.30;99.90;;;;;;5035662;28;20147;-71
2020/12/29 02:10:01;;;;;;;23.38;14.48;;;0.20;99.90;;;;;;5027130;28;20068;-70
2020/12/29 02:12:35;;;;;;;20.08;14.73;;;0.20;99.90;;;;;;5010196;28;20061;-71
2020/12/29 02:15:06;;;;;;;24.52;15.32;;;0.00;99.90;;;;;;5026937;28;20068;-71
2020/12/29 02:17:33;;;;;;;26.33;16.27;;;0.20;99.90;;;;;;5042307;28;20180;-70
2020/12/29 02:20:00;;;;;;;24.42;14.98;;;0.20;99.90;;;;;;5034981;28;20060;-71
2020/12/29 02:22:28;;;;;;;26.10;15.52;;;0.30;99.90;;;;;;5036832;28;20049;-71
2020/12/29 02:25:00;;;;;;;26.23;15.18;;;0.20;99.90;;;;;;5026677;28;20391;-71
2020/12/29 02:27:29;;;;;;;19.65;13.75;;;0.10;99.90;;;;;;5010851;28;20052;-71
2020/12/29 02:29:56;;;;;;;24.70;14.98;;;-0.10;99.90;;;;;;5025760;28;20132;-71
2020/12/29 02:32:23;;;;;;;24.92;16.67;;;0.00;99.90;;;;;;5036179;28;20049;-71
2020/12/29 02:34:50;;;;;;;29.00;15.88;;;-0.10;99.90;;;;;;5042587;28;20036;-70
2020/12/29 02:37:18;;;;;;;26.95;16.08;;;0.00;99.90;;;;;;5018601;28;20088;-71
2020/12/29 02:39:49;;;;;;;23.95;15.48;;;-0.10;99.90;;;;;;5043963;28;20079;-71
2020/12/29 02:42:15;;;;;;;20.67;14.27;;;0.00;99.90;;;;;;5043725;28;20052;-71
2020/12/29 02:44:42;;;;;;;18.85;12.75;;;0.10;99.90;;;;;;5026911;28;20135;-70
2020/12/29 02:47:08;;;;;;;17.58;12.77;;;0.20;99.90;;;;;;5044099;28;20124;-70
2020/12/29 02:49:35;;;;;;;19.55;11.93;;;0.30;99.90;;;;;;5043759;28;20049;-70
2020/12/29 02:52:03;;;;;;;15.00;11.10;;;0.40;99.90;;;;;;5045287;28;20064;-71
2020/12/29 02:54:29;;;;;;;17.75;11.02;;;0.60;99.90;;;;;;5048830;28;20059;-71
2020/12/29 02:56:56;;;;;;;14.93;11.15;;;0.70;99.90;;;;;;5029059;28;20061;-70
2020/12/29 02:59:25;;;;;;;14.98;10.60;;;0.80;99.90;;;;;;5048297;28;20109;-71
2020/12/29 03:01:52;;;;;;;13.43;9.95;;;0.90;99.90;;;;;;5028869;28;20225;-70
2020/12/29 03:04:19;;;;;;;14.95;10.77;;;1.00;99.90;;;;;;5047509;28;20053;-71
2020/12/29 03:06:46;;;;;;;13.15;10.10;;;1.10;99.90;;;;;;5038201;28;20402;-71
2020/12/29 03:09:13;;;;;;;13.43;10.50;;;1.10;99.90;;;;;;5046913;28;20045;-71
2020/12/29 03:11:39;;;;;;;16.45;10.85;;;1.20;99.90;;;;;;5046468;28;20051;-72
2020/12/29 03:14:07;;;;;;;12.65;10.52;;;1.30;99.90;;;;;;5046351;28;20072;-71
2020/12/29 03:16:34;;;;;;;14.52;11.23;;;1.30;99.90;;;;;;5046797;28;20140;-71
2020/12/29 03:19:20;;;;;;;14.50;11.40;;;1.30;99.90;;;;;;5046970;28;20049;-71
2020/12/29 03:21:46;;;;;;;17.35;11.80;;;1.30;99.90;;;;;;5046514;28;20053;-71
2020/12/29 03:24:13;;;;;;;13.98;12.43;;;1.40;99.90;;;;;;5047240;28;20064;-71
2020/12/29 03:26:39;;;;;;;13.07;11.60;;;1.40;99.90;;;;;;5046817;28;20053;-71
2020/12/29 03:29:06;;;;;;;14.95;11.68;;;1.50;99.90;;;;;;5045468;28;20053;-71
2020/12/29 03:31:34;;;;;;;15.15;11.80;;;1.50;99.90;;;;;;5047204;28;20045;-71
2020/12/29 03:34:01;;;;;;;16.98;13.05;;;1.50;99.90;;;;;;5046172;28;20045;-71
2020/12/29 03:36:27;;;;;;;16.20;12.88;;;1.50;99.90;;;;;;5039753;28;20276;-71
2020/12/29 03:38:53;;;;;;;18.00;13.23;;;1.60;99.90;;;;;;5047742;28;20568;-71
2020/12/29 03:41:20;;;;;;;19.92;13.30;;;1.60;99.90;;;;;;5047016;28;20045;-71
2020/12/29 03:43:46;;;;;;;19.27;12.88;;;1.50;99.90;;;;;;5047476;28;20139;-71
2020/12/29 03:46:12;;;;;;;21.20;14.13;;;1.60;99.90;;;;;;5046679;28;20044;-71
2020/12/29 03:48:39;;;;;;;18.05;14.40;;;1.70;99.90;;;;;;5047911;28;20188;-71
2020/12/29 03:51:05;;;;;;;20.92;13.93;;;1.70;99.90;;;;;;5047001;28;20090;-71
2020/12/29 03:53:31;;;;;;;20.30;15.07;;;1.80;99.90;;;;;;5046097;28;20061;-71
2020/12/29 03:55:57;;;;;;;18.92;14.40;;;1.60;99.90;;;;;;5043059;28;20047;-71
2020/12/29 03:58:24;;;;;;;18.70;14.50;;;1.60;99.90;;;;;;5047135;28;20052;-72
2020/12/29 04:00:50;;;;;;;23.98;15.23;;;1.50;99.90;;;;;;5045402;28;20067;-71
2020/12/29 04:03:17;;;;;;;21.90;15.73;;;1.30;99.90;;;;;;5044401;28;20068;-71
2020/12/29 04:05:43;;;;;;;22.48;15.20;;;1.40;99.90;;;;;;5046412;28;20049;-71
2020/12/29 04:08:09;;;;;;;20.38;15.15;;;1.50;99.90;;;;;;5032026;28;20049;-71
2020/12/29 04:10:36;;;;;;;24.48;15.20;;;1.30;99.90;;;;;;5029368;28;20663;-72
2020/12/29 04:13:03;;;;;;;21.15;15.80;;;1.40;99.90;;;;;;5045604;28;20521;-71
2020/12/29 04:15:29;;;;;;;25.17;16.08;;;1.50;99.90;;;;;;5045367;28;20540;-70
2020/12/29 04:17:55;;;;;;;25.38;16.50;;;1.50;99.90;;;;;;5045420;28;20493;-71
2020/12/29 04:20:21;;;;;;;20.38;16.05;;;1.50;99.90;;;;;;5045603;28;20063;-71
2020/12/29 04:22:48;;;;;;;19.65;14.82;;;1.60;99.90;;;;;;5047510;28;20135;-71
2020/12/29 04:25:14;;;;;;;18.85;14.85;;;1.60;99.90;;;;;;5045951;28;20051;-71
2020/12/29 04:27:41;;;;;;;22.83;16.05;;;1.70;99.90;;;;;;5028148;28;20147;-71
2020/12/29 04:30:09;;;;;;;19.67;15.13;;;1.70;99.90;;;;;;5044473;28;20037;-71
2020/12/29 04:32:37;;;;;;;18.05;14.60;;;1.80;99.90;;;;;;5045923;28;20044;-70
2020/12/29 04:35:05;;;;;;;19.88;16.15;;;1.80;99.90;;;;;;5044690;28;20041;-70
2020/12/29 04:37:32;;;;;;;17.50;15.35;;;1.80;99.90;;;;;;5033987;28;20494;-71
2020/12/29 04:39:58;;;;;;;21.58;15.13;;;1.80;99.90;;;;;;5026576;28;20053;-71
2020/12/29 04:42:28;;;;;;;19.58;16.58;;;1.70;99.90;;;;;;5031105;28;20141;-71
2020/12/29 04:44:55;;;;;;;20.75;16.92;;;1.80;99.90;;;;;;5028316;28;20171;-72
2020/12/29 04:47:28;;;;;;;20.08;17.30;;;1.80;99.90;;;;;;5027936;28;20057;-71
2020/12/29 04:49:57;;;;;;;22.73;17.00;;;1.90;99.90;;;;;;5045444;28;20037;-71
2020/12/29 04:52:23;;;;;;;19.00;16.23;;;1.90;99.90;;;;;;5045173;28;20048;-71
2020/12/29 04:54:54;;;;;;;20.50;15.20;;;1.90;99.90;;;;;;5029002;28;20231;-71
2020/12/29 04:57:23;;;;;;;21.02;15.88;;;1.70;99.90;;;;;;5044814;28;20413;-71
2020/12/29 04:59:53;;;;;;;18.27;15.07;;;1.70;99.90;;;;;;5044471;28;20049;-71
2020/12/29 05:02:19;;;;;;;18.35;15.35;;;1.70;99.90;;;;;;5043200;28;20060;-71
2020/12/29 05:04:46;;;;;;;21.63;14.32;;;1.70;99.90;;;;;;5046634;28;20476;-71
2020/12/29 05:07:12;;;;;;;19.67;15.05;;;1.80;99.90;;;;;;5019368;28;20370;-71
2020/12/29 05:09:39;;;;;;;21.35;15.85;;;1.80;99.90;;;;;;5045687;28;20049;-71
2020/12/29 05:12:05;;;;;;;22.55;16.75;;;1.80;99.90;;;;;;5044294;28;20040;-71
2020/12/29 05:14:32;;;;;;;19.00;15.73;;;1.90;99.90;;;;;;5011182;28;20044;-71
2020/12/29 05:17:01;;;;;;;20.10;16.30;;;1.90;99.90;;;;;;5044031;28;20044;-71
2020/12/29 05:19:27;;;;;;;22.95;16.98;;;1.90;99.90;;;;;;5045092;28;20053;-71
2020/12/29 05:21:56;;;;;;;21.33;17.05;;;2.10;99.90;;;;;;5043724;28;20517;-71
2020/12/29 05:24:23;;;;;;;21.60;17.92;;;1.90;99.90;;;;;;5045392;28;20540;-71
2020/12/29 05:26:56;;;;;;;21.40;17.52;;;1.90;99.90;;;;;;5042831;28;20066;-71
2020/12/29 05:29:24;;;;;;;22.63;17.55;;;1.90;99.90;;;;;;5032132;28;20140;-71
2020/12/29 05:31:51;;;;;;;22.92;18.95;;;2.00;99.90;;;;;;5028273;28;20051;-71
2020/12/29 05:34:26;;;;;;;23.95;18.95;;;2.00;99.90;;;;;;5045302;28;20743;-71
2020/12/29 05:36:53;;;;;;;26.25;19.80;;;1.90;99.90;;;;;;5024025;28;20076;-71
2020/12/29 05:39:26;;;;;;;23.02;17.92;;;1.90;99.90;;;;;;5026838;28;20060;-71
2020/12/29 05:41:56;;;;;;;22.73;17.98;;;1.90;99.90;;;;;;5043899;28;20053;-71
2020/12/29 05:44:31;;;;;;;23.05;18.23;;;1.90;99.90;;;;;;5046659;28;20098;-71
2020/12/29 05:47:03;;;;;;;23.92;19.05;;;2.00;99.90;;;;;;5026849;28;20099;-72
2020/12/29 05:49:33;;;;;;;25.00;18.83;;;2.00;99.90;;;;;;5028127;28;20445;-71
2020/12/29 05:51:59;;;;;;;24.17;19.88;;;2.00;99.90;;;;;;5023907;28;20407;-71
2020/12/29 05:54:27;;;;;;;23.27;20.17;;;2.10;99.90;;;;;;5025939;28;20145;-71
2020/12/29 05:56:55;;;;;;;27.48;21.13;;;2.00;99.90;;;;;;5025947;28;20144;-72
2020/12/29 05:59:21;;;;;;;25.08;19.23;;;2.10;99.90;;;;;;5043860;28;20044;-72
2020/12/29 06:01:54;;;;;;;24.83;18.50;;;2.00;99.90;;;;;;5045375;28;20402;-71
2020/12/29 06:04:21;;;;;;;27.50;19.55;;;2.00;99.90;;;;;;5027236;28;20068;-71
2020/12/29 06:06:49;;;;;;;25.80;19.85;;;2.00;99.90;;;;;;5033529;28;20143;-72
2020/12/29 06:09:17;;;;;;;27.92;20.48;;;2.10;99.90;;;;;;5044366;28;20057;-72
2020/12/29 06:11:46;;;;;;;25.65;20.83;;;2.00;99.90;;;;;;5026648;28;20071;-72
2020/12/29 06:14:16;;;;;;;33.30;21.85;;;2.00;99.90;;;;;;5026943;28;20532;-71
2020/12/29 06:16:43;;;;;;;28.35;21.05;;;2.00;99.90;;;;;;5043591;28;20596;-71
2020/12/29 06:19:17;;;;;;;27.00;19.70;;;2.10;99.90;;;;;;5044905;28;20187;-71
2020/12/29 06:21:53;;;;;;;25.83;18.73;;;1.90;99.90;;;;;;5042232;28;20045;-71
2020/12/29 06:24:20;;;;;;;29.85;21.02;;;1.90;99.90;;;;;;5027210;28;20041;-71
2020/12/29 06:26:51;;;;;;;28.02;20.38;;;1.90;99.90;;;;;;5026057;28;20369;-72
2020/12/29 06:29:21;;;;;;;31.52;21.30;;;1.90;99.90;;;;;;5042996;28;20091;-71
2020/12/29 06:31:49;;;;;;;28.52;20.58;;;2.00;99.90;;;;;;5026301;28;20069;-71
2020/12/29 06:34:17;;;;;;;32.55;21.60;;;2.00;99.90;;;;;;5043851;28;20037;-72
2020/12/29 06:36:47;;;;;;;28.13;20.48;;;2.00;99.90;;;;;;5019327;28;20528;-72
2020/12/29 06:39:16;;;;;;;26.42;20.35;;;2.00;99.90;;;;;;5025497;28;20081;-71
2020/12/29 06:41:42;;;;;;;28.25;21.27;;;2.00;99.90;;;;;;5038081;28;20594;-71
2020/12/29 06:44:12;;;;;;;32.67;22.10;;;2.10;99.90;;;;;;5043744;28;20056;-71
2020/12/29 06:46:39;;;;;;;34.50;23.98;;;2.10;99.90;;;;;;5044254;28;20275;-70
2020/12/29 06:49:21;;;;;;;32.95;24.25;;;2.00;99.90;;;;;;5044121;28;20037;-71
2020/12/29 06:52:15;;;;;;;29.05;22.08;;;2.00;99.90;;;;;;5032432;28;20037;-71
2020/12/29 06:54:58;;;;;;;35.22;24.77;;;1.90;99.90;;;;;;5043252;28;20641;-71
2020/12/29 06:57:38;;;;;;;40.85;25.25;;;2.00;99.90;;;;;;5042403;28;20052;-71
2020/12/29 07:00:07;;;;;;;41.95;27.33;;;1.90;99.90;;;;;;5043536;28;20441;-71
2020/12/29 07:02:38;;;;;;;47.20;29.10;;;1.80;99.90;;;;;;5025742;28;20060;-71
2020/12/29 07:05:15;;;;;;;55.80;30.25;;;1.80;99.90;;;;;;5042650;28;20061;-71
2020/12/29 07:07:51;;;;;;;50.30;30.13;;;1.70;99.90;;;;;;5035033;28;20139;-71
2020/12/29 07:10:19;;;;;;;52.58;29.75;;;1.60;99.90;;;;;;5009743;28;20049;-71
2020/12/29 07:12:50;;;;;;;40.70;27.40;;;1.60;99.90;;;;;;5042990;28;20056;-70
2020/12/29 07:15:23;;;;;;;46.30;27.50;;;1.60;99.90;;;;;;5009657;28;20049;-71
2020/12/29 07:18:09;;;;;;;39.95;25.50;;;1.60;99.90;;;;;;5026454;28;20080;-70
2020/12/29 07:20:37;;;;;;;42.08;25.67;;;1.50;99.90;;;;;;5044332;28;20045;-71
2020/12/29 07:23:06;;;;;;;35.33;23.77;;;1.60;99.90;;;;;;5037002;28;20041;-70
2020/12/29 07:25:34;;;;;;;43.47;25.77;;;1.50;99.90;;;;;;5007671;28;20057;-72
2020/12/29 07:28:06;;;;;;;40.13;24.77;;;1.60;99.90;;;;;;5050819;28;20033;-70
2020/12/29 07:30:34;;;;;;;36.55;23.25;;;1.50;99.90;;;;;;5041687;28;20343;-71
2020/12/29 07:33:03;;;;;;;35.85;23.63;;;1.50;99.90;;;;;;5042333;28;20049;-71
2020/12/29 07:35:33;;;;;;;39.65;26.27;;;1.60;99.90;;;;;;5041443;28;20075;-70
2020/12/29 07:38:15;;;;;;;35.78;23.88;;;1.60;99.90;;;;;;5036640;28;20147;-69
2020/12/29 07:40:42;;;;;;;39.40;26.80;;;1.60;99.90;;;;;;5028687;28;20409;-70
2020/12/29 07:43:08;;;;;;;43.60;26.92;;;1.60;99.90;;;;;;5032805;28;20040;-70
2020/12/29 07:45:35;;;;;;;47.08;29.67;;;1.60;99.90;;;;;;5045494;28;20056;-71
2020/12/29 07:48:03;;;;;;;46.20;29.42;;;1.70;99.90;;;;;;5028978;28;20061;-70
2020/12/29 07:50:31;;;;;;;46.58;31.58;;;1.70;99.90;;;;;;5034946;28;20099;-69
2020/12/29 07:53:08;;;;;;;56.88;34.25;;;1.80;99.90;;;;;;5043323;28;20799;-72
2020/12/29 07:55:35;;;;;;;43.22;29.35;;;1.80;99.90;;;;;;5014770;28;20037;-71
2020/12/29 07:58:06;;;;;;;46.15;28.40;;;1.80;99.90;;;;;;5044105;28;20053;-72
2020/12/29 08:00:34;;;;;;;42.67;26.38;;;1.90;99.90;;;;;;5025965;28;20417;-70
2020/12/29 08:03:00;;;;;;;36.97;24.80;;;1.80;99.90;;;;;;5008484;28;20096;-70
2020/12/29 08:05:29;;;;;;;37.47;24.60;;;1.80;99.90;;;;;;5034977;28;20085;-70
2020/12/29 08:08:01;;;;;;;37.67;23.58;;;1.80;99.90;;;;;;5020968;28;20057;-71
2020/12/29 08:10:36;;;;;;;35.40;24.10;;;1.80;99.90;;;;;;5025847;28;20045;-71
2020/12/29 08:13:04;;;;;;;36.00;23.95;;;1.90;99.90;;;;;;5031599;28;20135;-71
2020/12/29 08:15:35;;;;;;;32.78;24.23;;;1.80;99.90;;;;;;5044013;28;20063;-72
2020/12/29 08:18:07;;;;;;;33.33;24.85;;;1.90;99.90;;;;;;5045296;28;20057;-71
2020/12/29 08:20:45;;;;;;;34.22;25.02;;;1.80;99.90;;;;;;5027908;28;20276;-72
2020/12/29 08:23:16;;;;;;;32.88;23.73;;;1.90;99.90;;;;;;5008240;28;20057;-71
2020/12/29 08:25:56;;;;;;;32.55;24.23;;;2.00;99.90;;;;;;5018907;28;20053;-71
2020/12/29 08:28:28;;;;;;;37.20;24.77;;;2.00;99.90;;;;;;5029136;28;20057;-71
2020/12/29 08:30:55;;;;;;;31.83;23.00;;;2.00;99.90;;;;;;5045430;28;20535;-71
2020/12/29 08:33:23;;;;;;;28.80;22.98;;;2.00;99.90;;;;;;5028992;28;20057;-71
2020/12/29 08:35:57;;;;;;;30.13;22.88;;;2.00;99.90;;;;;;5043783;28;20053;-70
2020/12/29 08:38:28;;;;;;;28.13;24.10;;;2.00;99.90;;;;;;5045742;28;20049;-71
2020/12/29 08:41:13;;;;;;;32.70;23.90;;;2.00;99.90;;;;;;5043141;28;20128;-72
2020/12/29 08:43:47;;;;;;;30.42;24.95;;;2.00;99.90;;;;;;5009007;28;20045;-71
2020/12/29 08:46:16;;;;;;;30.30;23.77;;;2.00;99.90;;;;;;5028008;28;20144;-71
2020/12/29 08:48:56;;;;;;;40.63;26.45;;;2.10;99.90;;;;;;5045363;28;20114;-71
2020/12/29 08:51:28;;;;;;;33.90;25.55;;;2.10;99.90;;;;;;5055618;28;20056;-71
2020/12/29 08:54:09;;;;;;;34.10;25.70;;;2.10;99.90;;;;;;5065566;28;20084;-71
2020/12/29 08:56:36;;;;;;;31.88;23.98;;;2.20;99.90;;;;;;5053888;28;20045;-71
2020/12/29 08:59:21;;;;;;;30.33;24.77;;;2.30;99.90;;;;;;5045111;28;20059;-71
2020/12/29 09:01:55;;;;;;;28.30;24.02;;;2.40;99.90;;;;;;5045171;28;20132;-71
2020/12/29 09:04:42;;;;;;;34.53;26.87;;;2.40;99.90;;;;;;5028490;28;20057;-71
2020/12/29 09:07:12;;;;;;;31.17;25.05;;;2.50;99.90;;;;;;5020874;28;20234;-72
2020/12/29 09:10:03;;;;;;;34.13;25.42;;;2.60;99.90;;;;;;5046841;28;20229;-72
2020/12/29 09:12:35;;;;;;;33.58;25.98;;;2.70;99.90;;;;;;5027425;28;20041;-70
2020/12/29 09:15:03;;;;;;;39.60;28.85;;;2.70;99.90;;;;;;5045032;28;20055;-70
2020/12/29 09:17:32;;;;;;;35.42;26.58;;;2.70;99.90;;;;;;5007917;28;20100;-72
2020/12/29 09:20:13;;;;;;;32.47;27.08;;;2.70;99.90;;;;;;5026401;28;20144;-71
2020/12/29 09:22:57;;;;;;;43.40;30.88;;;2.70;99.90;;;;;;5041328;28;20149;-71
2020/12/29 09:25:28;;;;;;;32.73;27.23;;;2.70;99.90;;;;;;5026172;28;20054;-71
2020/12/29 09:28:14;;;;;;;45.60;30.98;;;2.80;99.90;;;;;;5007787;28;20045;-71
2020/12/29 09:30:43;;;;;;;28.85;25.45;;;2.80;99.90;;;;;;5027905;28;20132;-72
2020/12/29 09:33:10;;;;;;;28.27;24.08;;;2.80;99.90;;;;;;5043918;28;20057;-71
2020/12/29 09:35:36;;;;;;;29.52;24.20;;;2.80;99.90;;;;;;5044270;28;20124;-71
2020/12/29 09:38:03;;;;;;;27.77;22.25;;;2.90;99.90;;;;;;5036694;28;20049;-71
2020/12/29 09:40:50;;;;;;;25.10;21.67;;;2.80;99.90;;;;;;5042009;28;20610;-71
2020/12/29 09:43:17;;;;;;;23.55;20.30;;;2.80;99.90;;;;;;5008162;28;20034;-71
2020/12/29 09:45:45;;;;;;;23.58;20.17;;;2.80;99.90;;;;;;5006794;28;20069;-71
2020/12/29 09:48:12;;;;;;;23.27;20.13;;;2.80;99.90;;;;;;5007617;28;20252;-71
2020/12/29 09:50:38;;;;;;;19.65;17.50;;;2.90;99.90;;;;;;5019498;28;20048;-71
2020/12/29 09:53:05;;;;;;;21.05;18.98;;;2.90;99.90;;;;;;5043718;28;20045;-71
2020/12/29 09:55:32;;;;;;;18.40;16.58;;;2.80;99.90;;;;;;5043004;28;20096;-71
2020/12/29 09:57:58;;;;;;;20.70;17.30;;;2.70;99.90;;;;;;5042789;28;20052;-71
2020/12/29 10:00:24;;;;;;;19.77;17.30;;;2.80;99.90;;;;;;5043554;28;20144;-71
2020/12/29 10:02:51;;;;;;;22.02;19.00;;;2.80;99.90;;;;;;5043334;28;20295;-71
2020/12/29 10:05:18;;;;;;;19.10;16.67;;;2.90;99.90;;;;;;5026068;28;20084;-71
2020/12/29 10:07:44;;;;;;;18.52;16.42;;;2.90;99.90;;;;;;5034561;28;20103;-71
2020/12/29 10:10:11;;;;;;;21.95;18.23;;;2.80;99.90;;;;;;5042416;28;20113;-70
2020/12/29 10:12:37;;;;;;;23.13;18.85;;;2.80;99.90;;;;;;5042814;28;20045;-71
2020/12/29 10:15:05;;;;;;;22.35;18.55;;;2.80;99.90;;;;;;5043953;28;20494;-71
2020/12/29 10:17:32;;;;;;;21.95;17.92;;;2.80;99.90;;;;;;5042628;28;20059;-71
2020/12/29 10:19:59;;;;;;;17.70;15.80;;;2.90;99.90;;;;;;5026013;28;20076;-70
2020/12/29 10:22:26;;;;;;;20.38;16.63;;;2.80;99.90;;;;;;5025717;28;20611;-71
2020/12/29 10:24:53;;;;;;;27.15;19.30;;;2.90;99.90;;;;;;5036040;28;20059;-71
2020/12/29 10:27:19;;;;;;;28.65;19.77;;;3.00;99.90;;;;;;5027477;28;20053;-71
2020/12/29 10:29:45;;;;;;;20.27;17.10;;;3.10;99.90;;;;;;5030355;28;20118;-70
2020/12/29 10:32:12;;;;;;;18.38;16.40;;;3.20;99.90;;;;;;5025045;28;20051;-71
2020/12/29 10:34:38;;;;;;;23.00;17.05;;;3.20;99.90;;;;;;5041958;28;20053;-71
2020/12/29 10:37:10;;;;;;;22.80;15.98;;;3.30;99.90;;;;;;5033740;28;20045;-71
2020/12/29 10:39:37;;;;;;;16.70;14.98;;;3.40;99.90;;;;;;5042071;28;20053;-71
2020/12/29 10:42:06;;;;;;;18.77;16.75;;;3.50;99.90;;;;;;5030271;28;20141;-71
2020/12/29 10:44:33;;;;;;;20.08;14.77;;;3.50;99.90;;;;;;5039663;28;20053;-71
2020/12/29 10:46:59;;;;;;;19.33;15.25;;;3.50;99.90;;;;;;5041512;28;20122;-70
2020/12/29 10:49:25;;;;;;;15.93;14.23;;;3.50;99.90;;;;;;5042430;28;20387;-71
2020/12/29 10:51:52;;;;;;;17.48;14.80;;;3.60;99.90;;;;;;5041633;28;20045;-71
2020/12/29 10:54:22;;;;;;;17.25;15.40;;;3.70;99.90;;;;;;5036037;28;20085;-71
2020/12/29 10:56:49;;;;;;;17.85;14.10;;;3.80;99.90;;;;;;5021123;28;20053;-71
2020/12/29 10:59:15;;;;;;;21.45;15.50;;;3.90;99.90;;;;;;5024709;28;20539;-71
2020/12/29 11:01:41;;;;;;;21.38;14.85;;;3.90;99.90;;;;;;5041813;28;20501;-71
2020/12/29 11:04:07;;;;;;;15.70;14.15;;;4.00;99.90;;;;;;5042184;28;20497;-70
2020/12/29 11:06:34;;;;;;;14.80;13.07;;;4.00;99.90;;;;;;5033205;28;20140;-70
2020/12/29 11:09:00;;;;;;;15.40;14.00;;;4.00;99.90;;;;;;5043340;28;20064;-71
2020/12/29 11:11:26;;;;;;;15.43;14.18;;;3.90;99.90;;;;;;5042836;28;20052;-71
2020/12/29 11:13:53;;;;;;;19.20;14.35;;;3.90;99.90;;;;;;5046367;28;20435;-71
2020/12/29 11:16:20;;;;;;;13.23;12.27;;;4.00;99.90;;;;;;5045387;28;20274;-71
2020/12/29 11:18:48;;;;;;;16.45;14.80;;;3.90;99.90;;;;;;5045464;28;20049;-71
2020/12/29 11:21:19;;;;;;;17.27;15.10;;;3.90;99.90;;;;;;5045311;28;20056;-71
2020/12/29 11:23:46;;;;;;;14.25;12.80;;;3.90;99.90;;;;;;5045963;28;20061;-71
2020/12/29 11:26:18;;;;;;;18.52;15.23;;;3.80;99.90;;;;;;5030102;28;20413;-71
2020/12/29 11:28:44;;;;;;;16.65;15.05;;;3.80;99.90;;;;;;5045744;28;20061;-72
2020/12/29 11:31:12;;;;;;;14.50;13.05;;;3.80;99.90;;;;;;5045005;28;20057;-71
2020/12/29 11:33:39;;;;;;;15.77;14.05;;;3.70;99.90;;;;;;5029820;28;20057;-71
2020/12/29 11:36:05;;;;;;;13.93;12.50;;;3.70;99.90;;;;;;5022808;28;20061;-70
2020/12/29 11:38:32;;;;;;;16.48;13.30;;;3.70;99.90;;;;;;5016700;28;20045;-71
2020/12/29 11:40:58;;;;;;;11.75;10.85;;;3.60;99.90;;;;;;5031858;28;20414;-71
2020/12/29 11:43:24;;;;;;;14.77;13.45;;;3.60;99.90;;;;;;5025671;28;20091;-71
2020/12/29 11:45:51;;;;;;;13.82;12.43;;;3.70;99.90;;;;;;5024462;28;20129;-71
2020/12/29 11:48:17;;;;;;;14.82;13.20;;;3.70;99.90;;;;;;5016228;28;20556;-70
2020/12/29 11:50:43;;;;;;;13.07;11.80;;;3.60;99.90;;;;;;5044240;28;20053;-71
2020/12/29 11:53:10;;;;;;;12.63;11.68;;;3.70;99.90;;;;;;5045829;28;20041;-71
2020/12/29 11:55:36;;;;;;;15.38;12.07;;;3.70;99.90;;;;;;5015522;28;20045;-70
2020/12/29 11:58:02;;;;;;;14.20;11.40;;;3.80;99.90;;;;;;5033057;28;20053;-71
2020/12/29 12:00:28;;;;;;;12.93;11.80;;;3.80;99.90;;;;;;5030186;28;20041;-71
2020/12/29 12:02:55;;;;;;;14.10;12.07;;;3.90;99.90;;;;;;5032785;28;20049;-72
2020/12/29 12:05:21;;;;;;;12.57;10.52;;;4.00;99.90;;;;;;5031606;28;20057;-71
2020/12/29 12:07:47;;;;;;;11.73;10.75;;;4.00;99.90;;;;;;5015509;28;20616;-71
2020/12/29 12:10:14;;;;;;;12.95;11.85;;;4.00;99.90;;;;;;5027005;28;20058;-71
2020/12/29 12:12:40;;;;;;;13.85;12.18;;;4.00;99.90;;;;;;5044665;28;20556;-71
2020/12/29 12:15:07;;;;;;;15.23;12.77;;;4.00;99.90;;;;;;5044358;28;20049;-71
2020/12/29 12:17:33;;;;;;;13.82;12.10;;;4.00;99.90;;;;;;5045515;28;20472;-70
2020/12/29 12:19:59;;;;;;;13.50;12.02;;;4.00;99.90;;;;;;5028344;28;20174;-70
2020/12/29 12:22:26;;;;;;;13.57;11.88;;;4.00;99.90;;;;;;5024012;28;20065;-71
2020/12/29 12:24:52;;;;;;;13.57;12.35;;;4.10;99.90;;;;;;5027374;28;20504;-70
2020/12/29 12:27:18;;;;;;;15.75;13.00;;;4.10;99.90;;;;;;5027434;28;20131;-71
2020/12/29 12:29:45;;;;;;;12.75;11.60;;;4.20;99.90;;;;;;5044456;28;20052;-71
2020/12/29 12:32:11;;;;;;;15.45;11.10;;;4.20;99.90;;;;;;5027091;28;20132;-71
2020/12/29 12:34:37;;;;;;;12.23;11.02;;;4.20;99.90;;;;;;5044276;28;20739;-71
2020/12/29 12:37:04;;;;;;;13.18;12.07;;;4.20;99.90;;;;;;5019233;28;20128;-71
2020/12/29 12:39:31;;;;;;;14.25;12.75;;;4.20;99.90;;;;;;5027504;28;20144;-71
2020/12/29 12:41:58;;;;;;;15.85;12.85;;;4.20;99.90;;;;;;5038801;28;20045;-71
2020/12/29 12:44:24;;;;;;;14.93;13.57;;;4.20;99.90;;;;;;5044776;28;20309;-71